Aérodrome :
LOGIN :

S'inscrire | Disclaimer

   EN    FR    IT 

 










Légende :    VFR   VFR Marginal   IFR   IFR Intensif   IFR Très Intensif
Visi : 
Plafond : 
>= 8 km
>= 3000ft
5 à 8 km
1000 à 3000 ft
1500m à 5 km
500 à 1000 ft
800 à 1500m
200 à 500 ft
< 800m
< 200 ft
Symboles :   Orages  Brouillard  Fortes neiges  Fortes précipitations  Vent > 20 kt
SIGMETs :   Divers  Orages  Givrage  Turbulence  Onde Orograph.  Cendres Volcan.






- Altitude de l'aérodrome : 302 ft


LFPM - Melun Villaroche

DERNIER METAR :
  • 090930Z AUTO 23007KT 190V260 //// // NSC 27/17 Q1016

METARs EXPIRÉS :
  • 090900Z AUTO 21008KT 180V250 CAVOK 26/17 Q1017
  • 090830Z AUTO VRB05KT CAVOK 25/16 Q1017
  • 090800Z AUTO 25004KT 200V280 CAVOK 24/16 Q1017
  • 090730Z AUTO 25004KT 210V300 CAVOK 23/16 Q1017
  • 090700Z AUTO 26004KT 220V300 CAVOK 22/16 Q1017

Prévision TAF périmée.
ATIS : +33 1 64 14 28 44



MET'MAP, la Météo Aéronautique d'un coup d'oeil ! - Copyright ORBIFLY Décembre 2007 - Disclaimer

ORBIFLY MET'MAP TEAM :

Programmation & Développement : Alexandra Zaïnal
Sur une idée originale de : Baudouin d'Aumeries
Assistance à la programmation : Marc-Olivier Méhu
Soutien technique & logistique : Manuel Goepfert

Contact : metmap@orbifly.com




SOURCES & CREDITS :

   NOAA